Winnemucca, NV

11:11 PM PDT on August 29, 2014 (GMT -0700)
Winnemucca Municipal | Change Station
CLOSE
Current Station
Airport
Location: Winnemucca,
Elevation: 4311 ft
Nearby Weather Stations

Elev 4311 ft 40.90 °N, 117.81 °W | Updated 15 minutes ago

Clear
Clear
75 °F
Feels Like 75 °F
N
13
Wind Variable Wind from West

Today
High -- | Low -- °F
--% Chance of Precip.
Yesterday
High -- | Low -- °F
Precip. -- in
6:14 AM 7:28 PM
Waxing Crescent, 19% visible
Pressure 29.80 in
Visibility 10.0 miles
Clouds Clear
Dew Point 37 °F
Humidity 25%
Rainfall 0.00 in
Snow Depth Not available.
UV 0 out of 12
Pollen 8.60 out of 12
Air Quality Not available.
Flu Activity Not available.
METAR KWMC 300556Z AUTO 26011KT 10SM CLR 24/03 A2996 RMK AO2 SLP091 T02390028 10311 20233 50004

More Conditions Fewer Conditions

Pressure 29.80 in
Visibility 10.0 miles
Clouds Clear
Dew Point 37 °F
Humidity 25%
Rainfall 0.00 in
Snow Depth Not available.
UV 0 out of 12
Pollen 8.60 out of 12
Air Quality Not available.
Flu Activity Not available.
METAR KWMC 300556Z AUTO 26011KT 10SM CLR 24/03 A2996 RMK AO2 SLP091 T02390028 10311 20233 50004

More Conditions Fewer Conditions

10-Day Weather Forecast

Almanac

Astronomy

Aug. 29, 2014 Rise Set
Actual Time 6:14 AM PDT 7:28 PM PDT
Civil Twilight 5:46 AM PDT 7:56 PM PDT
Nautical Twilight 5:12 AM PDT 8:30 PM PDT
Astronomical Twilight 4:36 AM PDT 9:06 PM PDT
Moon 10:11 AM PDT (8/29) 9:26 PM PDT (8/29)
Length of Visible Light 14h 10m
Length of Day
13h 13m
Tomorrow will be 2m 36s shorter.
Waxing Crescent, 19% of the Moon is Illuminated
Aug 30
Waxing Crescent
Sep 2
First Quarter
Sep 8
Full
Sep 15
Last Quarter
Sep 24
New

Community

WunderPhotos

Upload Photos

1,748,465 photos uploaded!

Nearby

Snow Depth

Station Depth Elevation
Lamance Creek 1 in 6000 ft
Granite Peak 1 in 7800 ft
Buckskin Lower 3 in 6700 ft
Lewis Peak 0 in 7400 ft
Taylor Canyon 1 in 6200 ft

Earthquake Activity

City Distance Mag. Time & Date
Lakeview, Oregon 109 miles 2.8 3:14 PM PDT
2014-08-29
Lakeview, Oregon 109 miles 2.7 2:21 PM PDT
2014-08-29
Lakeview, Oregon 109 miles 3.0 10:47 AM PDT
2014-08-29
Lakeview, Oregon 109 miles 2.5 5:31 AM PDT
2014-08-29
Minimum magnitude displayed is 2.5.

Coastal Water Temperatures

Place Temperature
No Stations Reporting

Nearby Weather Stations